Decoded Metar for KKLS (KELSO LONGVEIW in WA, USA) (IATA:KLS) | Meteo·Mobile Aviation Weather
aviador You're here:

KKLS Decoded Metar

KELSO LONGVEIW in WA, USA
Report Time2019-06-27 07:52:00
UTC Time2019-06-27 08:00:53
Flight Rules mvfr MVFR
Wind140° at 05 kt
W.Decomp.*RWY 12: 5.0 kt HW 0.3 kt RCW
Visibility9999 m
Phenomena:N/A
Clouds:Broken 026 Hf
Broken 037 Hf
Overcast 080 Hf
Expected CloudBase > 400 ft AGL from Temp-Dew spread
Ceiling2,600 ft
Temp13°C (ISA -2)
Dew Point12°C (94% RH)
AAT11.8°C
QNH1016 hPa
Density Alt-131 ft
Elevation16 ft
Report Wrong Elevation
Raw Report
KKLS 270752Z AUTO 14005KT 10SM BKN026 BKN037 OVC080 13/12 A2999
RMK AO2 RAB0658E17 P0000 402390128=

Extra information for KKLS:More info

Metar Taf Metar & Taf Last 4 Metars F.Rules Stats Wind Profile Meteogram Temp Stats Airport Information Weather charts Add Link Nearby VenuesMetar ALERT Operation Metar Decoded Social comments

AIRNAV info for KKLS